createdAt,value
2019-01-06T00:01:36.671Z,8.20
2019-01-06T00:04:37.830Z,8.20
2019-01-06T00:07:53.008Z,8.30
2019-01-06T00:11:02.119Z,8.20
2019-01-06T00:14:08.452Z,8.20
2019-01-06T00:17:13.490Z,8.20
2019-01-06T00:20:15.565Z,8.20
2019-01-06T00:23:30.654Z,8.20
2019-01-06T00:26:35.731Z,8.30
2019-01-06T00:29:41.187Z,8.20
2019-01-06T00:32:46.053Z,8.20
2019-01-06T00:35:54.026Z,8.30
2019-01-06T00:39:13.294Z,8.30
2019-01-06T00:42:18.598Z,8.30
2019-01-06T00:45:18.316Z,8.20
2019-01-06T00:48:23.054Z,8.20
2019-01-06T00:51:27.970Z,8.20
2019-01-06T00:54:27.554Z,8.10
2019-01-06T00:57:22.862Z,8.10
2019-01-06T01:00:17.371Z,8.10
2019-01-06T01:03:21.344Z,8.10
2019-01-06T01:06:26.025Z,8.20
2019-01-06T01:09:50.709Z,8.20
2019-01-06T01:12:51.521Z,8.20
2019-01-06T01:15:57.157Z,8.10
2019-01-06T01:18:55.165Z,8.20
2019-01-06T01:21:59.773Z,8.20
2019-01-06T01:25:00.595Z,8.20
2019-01-06T01:28:07.326Z,8.20
2019-01-06T01:31:11.726Z,8.20
2019-01-06T01:34:16.429Z,8.20
2019-01-06T01:37:25.260Z,8.10
2019-01-06T01:40:29.853Z,8.20
2019-01-06T01:43:36.023Z,8.20
2019-01-06T01:46:38.159Z,8.20
2019-01-06T01:49:59.274Z,8.30
2019-01-06T01:53:05.806Z,8.20
2019-01-06T01:56:24.717Z,8.30
2019-01-06T01:59:35.039Z,8.20
2019-01-06T02:02:37.137Z,8.20
2019-01-06T02:05:41.639Z,8.20
2019-01-06T02:08:43.317Z,8.20
2019-01-06T02:11:47.918Z,8.20
2019-01-06T02:14:52.480Z,8.20
2019-01-06T02:18:04.233Z,8.20
2019-01-06T02:21:19.684Z,8.20
2019-01-06T02:24:24.529Z,8.20
2019-01-06T02:27:29.302Z,8.20
2019-01-06T02:30:53.350Z,8.20
2019-01-06T02:34:11.917Z,8.20
2019-01-06T02:37:19.308Z,8.10
2019-01-06T02:40:26.856Z,8.10
2019-01-06T02:43:36.043Z,8.10
2019-01-06T02:46:37.177Z,8.10
2019-01-06T02:49:39.685Z,8.10
2019-01-06T02:52:54.922Z,8.10
2019-01-06T02:56:07.488Z,8.20
2019-01-06T02:59:13.600Z,8.10
2019-01-06T03:02:14.310Z,8.20
2019-01-06T03:05:18.326Z,8.20
2019-01-06T03:08:22.825Z,8.10
2019-01-06T03:11:29.175Z,8.10
2019-01-06T03:14:32.447Z,8.10
2019-01-06T03:17:32.706Z,8.20
2019-01-06T03:20:35.403Z,8.10
2019-01-06T03:23:42.480Z,8.20
2019-01-06T03:26:47.088Z,8.20
2019-01-06T03:29:45.403Z,8.10
2019-01-06T03:32:51.994Z,8.10
2019-01-06T03:36:10.032Z,8.10
2019-01-06T03:39:16.714Z,8.10
2019-01-06T03:42:11.650Z,8.10
2019-01-06T03:45:18.174Z,8.10
2019-01-06T03:48:28.043Z,8.10
2019-01-06T03:51:32.803Z,8.10
2019-01-06T03:54:33.315Z,8.20
2019-01-06T03:57:41.063Z,8.10
2019-01-06T04:00:50.166Z,8.10
2019-01-06T04:04:02.439Z,8.10
2019-01-06T04:07:17.411Z,8.10
2019-01-06T04:10:24.232Z,8.00
2019-01-06T04:13:36.303Z,8.10
2019-01-06T04:16:37.448Z,8.10
2019-01-06T04:19:41.660Z,8.10
2019-01-06T04:22:55.433Z,8.10
2019-01-06T04:26:00.194Z,8.10
2019-01-06T04:29:24.342Z,8.10
2019-01-06T04:32:29.137Z,8.10
2019-01-06T04:35:33.926Z,8.10
2019-01-06T04:38:42.111Z,8.10
2019-01-06T04:41:48.474Z,8.10
2019-01-06T04:45:02.227Z,8.20
2019-01-06T04:48:01.678Z,8.10
2019-01-06T04:51:12.046Z,8.10
2019-01-06T04:54:12.904Z,8.10
2019-01-06T04:57:17.935Z,8.10
2019-01-06T05:00:21.714Z,8.10
2019-01-06T05:03:33.349Z,8.10
2019-01-06T05:06:38.129Z,8.00
2019-01-06T05:09:42.863Z,8.00
2019-01-06T05:12:45.204Z,8.10
2019-01-06T05:15:55.854Z,8.00
2019-01-06T05:19:09.718Z,8.10
2019-01-06T05:22:06.767Z,8.00
2019-01-06T05:25:11.483Z,8.00
2019-01-06T05:28:17.815Z,8.00
2019-01-06T05:31:29.582Z,8.00
2019-01-06T05:34:38.546Z,8.00
2019-01-06T05:37:44.674Z,8.00
2019-01-06T05:40:49.349Z,8.00
2019-01-06T05:43:56.511Z,8.00
2019-01-06T05:47:24.826Z,8.00
2019-01-06T05:50:49.024Z,8.00
2019-01-06T05:54:04.192Z,8.00
2019-01-06T05:57:15.832Z,8.00
2019-01-06T06:00:18.854Z,8.00
2019-01-06T06:03:23.364Z,8.00
2019-01-06T06:06:28.095Z,8.00
2019-01-06T06:09:34.175Z,8.00
2019-01-06T06:12:38.836Z,8.00
2019-01-06T06:15:47.560Z,8.00
2019-01-06T06:18:42.202Z,8.00
2019-01-06T06:21:42.770Z,8.00
2019-01-06T06:25:00.899Z,8.00
2019-01-06T06:28:00.178Z,8.00
2019-01-06T06:31:04.890Z,8.00
2019-01-06T06:34:23.203Z,7.90
2019-01-06T06:37:29.119Z,7.90
2019-01-06T06:40:41.102Z,7.90
2019-01-06T06:43:42.720Z,8.00
2019-01-06T06:46:54.837Z,8.00
2019-01-06T06:49:59.203Z,8.00
2019-01-06T06:52:56.122Z,8.00
2019-01-06T06:56:00.406Z,8.00
2019-01-06T06:59:05.418Z,8.00
2019-01-06T07:02:54.071Z,8.00
2019-01-06T07:06:15.821Z,8.00
2019-01-06T07:09:16.577Z,8.00
2019-01-06T07:12:21.036Z,8.00
2019-01-06T07:15:45.235Z,8.00
2019-01-06T07:18:50.271Z,8.00
2019-01-06T07:21:55.087Z,8.00
2019-01-06T07:25:09.847Z,8.00
2019-01-06T07:28:16.203Z,8.00
2019-01-06T07:31:23.430Z,8.00
2019-01-06T07:34:30.026Z,7.90
2019-01-06T07:37:36.302Z,7.90
2019-01-06T07:40:48.602Z,8.00
2019-01-06T07:43:59.912Z,7.90
2019-01-06T07:47:04.756Z,7.90
2019-01-06T07:50:09.428Z,8.00
2019-01-06T07:53:18.531Z,8.00
2019-01-06T07:56:23.076Z,8.00
2019-01-06T07:59:19.823Z,8.00
2019-01-06T08:02:22.992Z,8.10
2019-01-06T08:05:44.041Z,8.10
2019-01-06T08:09:06.514Z,8.10
2019-01-06T08:12:11.463Z,8.00
2019-01-06T08:15:11.515Z,8.10
2019-01-06T08:18:16.026Z,8.00
2019-01-06T08:21:20.715Z,8.00
2019-01-06T08:24:38.747Z,8.00
2019-01-06T08:27:45.431Z,8.00
2019-01-06T08:30:50.155Z,8.00
2019-01-06T08:33:55.710Z,8.10
2019-01-06T08:37:01.783Z,8.10
2019-01-06T08:40:06.450Z,8.10
2019-01-06T08:43:14.630Z,8.00
2019-01-06T08:46:30.097Z,8.10
2019-01-06T08:49:34.966Z,8.10
2019-01-06T08:52:31.243Z,8.10
2019-01-06T08:55:36.166Z,8.10
2019-01-06T08:58:45.084Z,8.00
2019-01-06T09:02:09.155Z,8.10
2019-01-06T09:05:13.215Z,8.10
2019-01-06T09:08:18.010Z,8.20
2019-01-06T09:11:21.919Z,8.10
2019-01-06T09:14:20.888Z,8.20
2019-01-06T09:17:31.143Z,8.20
2019-01-06T09:20:55.588Z,8.20
2019-01-06T09:24:01.842Z,8.30
2019-01-06T09:27:20.040Z,8.30
2019-01-06T09:30:23.783Z,8.30
2019-01-06T09:33:26.188Z,8.30
2019-01-06T09:36:44.608Z,8.40
2019-01-06T09:40:05.471Z,8.40
2019-01-06T09:43:14.336Z,8.40
2019-01-06T09:46:32.594Z,8.40
2019-01-06T09:49:50.308Z,8.30
2019-01-06T09:53:02.671Z,8.30
2019-01-06T09:56:14.963Z,8.30
2019-01-06T09:59:16.719Z,8.30
2019-01-06T10:02:15.536Z,8.20
2019-01-06T10:05:18.216Z,8.20
2019-01-06T10:08:23.082Z,8.20
2019-01-06T10:11:24.955Z,8.20
2019-01-06T10:14:48.956Z,8.30
2019-01-06T10:18:12.763Z,8.30
2019-01-06T10:21:17.432Z,8.40
2019-01-06T10:24:35.835Z,8.40
2019-01-06T10:27:50.832Z,8.40
2019-01-06T10:30:55.771Z,8.40
2019-01-06T10:34:07.491Z,8.40
2019-01-06T10:37:16.409Z,8.40
2019-01-06T10:40:34.268Z,8.50
2019-01-06T10:43:55.403Z,8.40
2019-01-06T10:47:03.516Z,8.40
2019-01-06T10:50:07.917Z,8.40
2019-01-06T10:53:12.533Z,8.50
2019-01-06T10:56:18.904Z,8.50
2019-01-06T10:59:23.678Z,8.40
2019-01-06T11:02:35.783Z,8.50
2019-01-06T11:05:43.986Z,8.60
2019-01-06T11:08:43.810Z,8.60
2019-01-06T11:11:55.987Z,8.60
2019-01-06T11:15:09.038Z,8.60
2019-01-06T11:18:18.183Z,8.60
2019-01-06T11:21:23.178Z,8.70
2019-01-06T11:24:25.641Z,8.70
2019-01-06T11:27:40.137Z,8.70
2019-01-06T11:30:46.388Z,8.70
2019-01-06T11:33:53.254Z,8.60
2019-01-06T11:36:51.892Z,8.60
2019-01-06T11:39:56.595Z,8.70
2019-01-06T11:43:01.556Z,8.70
2019-01-06T11:46:04.681Z,8.60
2019-01-06T11:49:23.324Z,8.50
2019-01-06T11:52:28.024Z,8.50
2019-01-06T11:55:37.175Z,8.50
2019-01-06T11:58:43.535Z,8.40
2019-01-06T12:01:51.886Z,8.50
2019-01-06T12:04:56.462Z,8.50
2019-01-06T12:08:01.263Z,8.60
2019-01-06T12:11:06.085Z,8.70
2019-01-06T12:14:15.028Z,8.60
2019-01-06T12:17:18.736Z,8.60
2019-01-06T12:20:17.638Z,8.70
2019-01-06T12:23:27.448Z,8.70
2019-01-06T12:26:33.408Z,8.60
2019-01-06T12:29:42.871Z,8.60
2019-01-06T12:32:54.903Z,8.60
2019-01-06T12:36:03.319Z,8.70
2019-01-06T12:39:11.945Z,8.70
2019-01-06T12:42:16.628Z,8.70
2019-01-06T12:45:17.086Z,8.80
2019-01-06T12:48:17.519Z,8.80
2019-01-06T12:51:15.283Z,8.80
2019-01-06T12:54:21.542Z,8.80
2019-01-06T12:57:31.062Z,8.80
2019-01-06T13:00:35.869Z,8.70
2019-01-06T13:03:41.591Z,8.70
2019-01-06T13:06:46.470Z,8.70
2019-01-06T13:09:56.439Z,8.70
2019-01-06T13:13:02.610Z,8.70
2019-01-06T13:16:09.135Z,8.70
2019-01-06T13:19:13.946Z,8.70
2019-01-06T13:22:19.245Z,8.60
2019-01-06T13:25:24.415Z,8.60
2019-01-06T13:28:42.714Z,8.60
2019-01-06T13:31:47.635Z,8.60
2019-01-06T13:34:53.852Z,8.60
2019-01-06T13:38:00.780Z,8.60
2019-01-06T13:41:04.366Z,8.50
2019-01-06T13:44:19.854Z,8.60
2019-01-06T13:47:44.210Z,8.60
2019-01-06T13:50:53.437Z,8.60
2019-01-06T13:54:10.466Z,8.60
2019-01-06T13:57:15.595Z,8.70
2019-01-06T14:00:20.211Z,8.60
2019-01-06T14:03:32.355Z,8.60
2019-01-06T14:06:38.736Z,8.60
2019-01-06T14:09:43.394Z,8.60
2019-01-06T14:12:58.629Z,8.60
2019-01-06T14:16:17.686Z,8.50
2019-01-06T14:19:17.001Z,8.50
2019-01-06T14:22:22.682Z,8.50
2019-01-06T14:25:27.265Z,8.40
2019-01-06T14:28:33.314Z,8.50
2019-01-06T14:31:48.377Z,8.40
2019-01-06T14:34:50.739Z,8.40
2019-01-06T14:37:49.649Z,8.40
2019-01-06T14:40:58.634Z,8.40
2019-01-06T14:43:56.255Z,8.50
2019-01-06T14:46:59.707Z,8.50
2019-01-06T14:50:04.549Z,8.50
2019-01-06T14:53:13.660Z,8.40
2019-01-06T14:56:20.188Z,8.50
2019-01-06T14:59:24.719Z,8.50
2019-01-06T15:02:40.860Z,8.40
2019-01-06T15:05:58.034Z,8.50
2019-01-06T15:09:02.620Z,8.50
2019-01-06T15:12:07.416Z,8.40
2019-01-06T15:15:10.181Z,8.40
2019-01-06T15:18:25.251Z,8.40
2019-01-06T15:21:42.566Z,8.30
2019-01-06T15:24:45.802Z,8.40
2019-01-06T15:27:49.795Z,8.40
2019-01-06T15:30:54.875Z,8.40
2019-01-06T15:34:02.690Z,8.40
2019-01-06T15:37:07.266Z,8.40
2019-01-06T15:40:22.201Z,8.30
2019-01-06T15:43:36.982Z,8.40
2019-01-06T15:46:49.022Z,8.30
2019-01-06T15:49:53.686Z,8.20
2019-01-06T15:53:09.612Z,8.20
2019-01-06T15:56:14.622Z,8.20
2019-01-06T15:59:15.110Z,8.20
2019-01-06T16:02:19.810Z,8.20
2019-01-06T16:05:22.945Z,8.10
2019-01-06T16:08:27.451Z,8.10
2019-01-06T16:11:35.262Z,8.00
2019-01-06T16:14:44.064Z,8.00
2019-01-06T16:17:45.961Z,7.90
2019-01-06T16:21:01.300Z,7.90
2019-01-06T16:24:03.638Z,7.90
2019-01-06T16:27:03.915Z,7.90
2019-01-06T16:30:18.936Z,7.90
2019-01-06T16:33:30.227Z,7.80
2019-01-06T16:36:26.429Z,7.80
2019-01-06T16:39:44.514Z,7.80
2019-01-06T16:42:56.587Z,7.80
2019-01-06T16:46:08.570Z,7.80
2019-01-06T16:49:17.488Z,7.80
2019-01-06T16:52:32.854Z,7.80
2019-01-06T16:55:37.557Z,7.80
2019-01-06T16:58:42.522Z,7.70
2019-01-06T17:01:47.038Z,7.70
2019-01-06T17:04:53.717Z,7.70
2019-01-06T17:07:58.181Z,7.70
2019-01-06T17:11:02.998Z,7.60
2019-01-06T17:14:27.350Z,7.60
2019-01-06T17:17:30.757Z,7.70
2019-01-06T17:20:35.563Z,7.70
2019-01-06T17:23:40.232Z,7.70
2019-01-06T17:26:45.210Z,7.60
2019-01-06T17:30:09.279Z,7.70
2019-01-06T17:33:15.865Z,7.70
2019-01-06T17:36:20.338Z,7.70
2019-01-06T17:39:30.718Z,7.70
2019-01-06T17:42:48.722Z,7.70
2019-01-06T17:45:55.430Z,7.70
2019-01-06T17:49:10.807Z,7.70
2019-01-06T17:52:22.743Z,7.70
2019-01-06T17:55:40.393Z,7.70
2019-01-06T17:58:51.772Z,7.70
2019-01-06T18:01:56.759Z,7.60
2019-01-06T18:05:03.215Z,7.70
2019-01-06T18:08:15.187Z,7.50
2019-01-06T18:11:19.938Z,7.60
2019-01-06T18:14:24.867Z,7.70
2019-01-06T18:17:43.093Z,7.50
2019-01-06T18:21:00.920Z,7.50
2019-01-06T18:24:05.561Z,7.60
2019-01-06T18:27:29.701Z,7.70
2019-01-06T18:30:44.611Z,7.60
2019-01-06T18:33:41.146Z,7.60
2019-01-06T18:36:59.133Z,7.50
2019-01-06T18:40:03.776Z,7.50
2019-01-06T18:43:10.287Z,7.50
2019-01-06T18:46:25.438Z,7.50
2019-01-06T18:49:24.792Z,7.60
2019-01-06T18:52:22.869Z,7.50
2019-01-06T18:55:32.335Z,7.40
2019-01-06T18:58:40.971Z,7.50
2019-01-06T19:01:45.586Z,7.50
2019-01-06T19:05:06.791Z,7.50
2019-01-06T19:08:03.936Z,7.50
2019-01-06T19:11:08.344Z,7.50
2019-01-06T19:14:23.443Z,7.50
2019-01-06T19:17:40.558Z,7.50
2019-01-06T19:20:38.561Z,7.40
2019-01-06T19:23:43.491Z,7.50
2019-01-06T19:26:48.506Z,7.50
2019-01-06T19:29:56.638Z,7.40
2019-01-06T19:33:13.798Z,7.40
2019-01-06T19:36:25.718Z,7.40
2019-01-06T19:39:30.166Z,7.30
2019-01-06T19:42:32.341Z,7.40
2019-01-06T19:45:36.786Z,7.40
2019-01-06T19:48:48.983Z,7.30
2019-01-06T19:51:58.234Z,7.40
2019-01-06T19:54:55.495Z,7.40
2019-01-06T19:58:19.659Z,7.30
2019-01-06T20:01:16.310Z,7.30
2019-01-06T20:04:21.124Z,7.10
2019-01-06T20:07:25.611Z,7.20
2019-01-06T20:10:46.719Z,7.20
2019-01-06T20:13:58.541Z,7.30
2019-01-06T20:17:14.551Z,7.30
2019-01-06T20:20:19.350Z,7.10
2019-01-06T20:23:24.013Z,7.20
2019-01-06T20:26:30.186Z,7.30
2019-01-06T20:29:34.695Z,7.30
2019-01-06T20:32:43.073Z,7.30
2019-01-06T20:36:04.474Z,7.20
2019-01-06T20:39:09.189Z,7.30
2019-01-06T20:42:14.764Z,7.30
2019-01-06T20:45:27.694Z,7.20
2019-01-06T20:48:32.458Z,7.30
2019-01-06T20:51:37.642Z,7.30
2019-01-06T20:54:46.456Z,7.20
2019-01-06T20:57:49.852Z,7.20
2019-01-06T21:00:56.255Z,7.20
2019-01-06T21:04:01.083Z,7.10
2019-01-06T21:07:13.135Z,7.20
2019-01-06T21:10:17.846Z,7.30
2019-01-06T21:13:18.501Z,7.20
2019-01-06T21:16:20.778Z,7.10
2019-01-06T21:19:25.395Z,7.20
2019-01-06T21:22:30.239Z,7.20
2019-01-06T21:25:42.027Z,7.10
2019-01-06T21:28:54.574Z,7.10
2019-01-06T21:31:56.839Z,7.10
2019-01-06T21:35:12.499Z,7.00
2019-01-06T21:38:18.962Z,7.10
2019-01-06T21:41:26.337Z,7.20
2019-01-06T21:44:29.391Z,7.10
2019-01-06T21:47:34.224Z,7.20
2019-01-06T21:50:40.622Z,7.20
2019-01-06T21:53:46.853Z,7.10
2019-01-06T21:57:05.273Z,7.20
2019-01-06T22:00:14.755Z,7.20
2019-01-06T22:03:23.822Z,7.20
2019-01-06T22:06:38.941Z,7.30
2019-01-06T22:09:51.146Z,7.20
2019-01-06T22:13:00.538Z,7.20
2019-01-06T22:16:10.641Z,7.10
2019-01-06T22:19:12.172Z,7.10
2019-01-06T22:22:12.283Z,7.20
2019-01-06T22:25:20.363Z,7.10
2019-01-06T22:28:29.664Z,7.20
2019-01-06T22:31:41.356Z,7.20
2019-01-06T22:34:50.006Z,7.20
2019-01-06T22:38:08.575Z,7.30
2019-01-06T22:41:14.899Z,7.30
2019-01-06T22:44:16.499Z,7.30
2019-01-06T22:47:20.955Z,7.20
2019-01-06T22:50:20.954Z,7.10
2019-01-06T22:53:28.459Z,7.20
2019-01-06T22:56:35.909Z,7.10
2019-01-06T23:00:00.440Z,7.10
2019-01-06T23:02:58.713Z,7.00
2019-01-06T23:05:59.547Z,7.10
2019-01-06T23:09:07.885Z,7.20
2019-01-06T23:12:12.719Z,7.20
2019-01-06T23:15:32.619Z,7.20
2019-01-06T23:18:33.978Z,7.10
2019-01-06T23:21:55.130Z,7.10
2019-01-06T23:24:59.614Z,7.10
2019-01-06T23:28:23.954Z,7.00
2019-01-06T23:31:21.369Z,7.10
2019-01-06T23:34:19.991Z,7.00
2019-01-06T23:37:24.707Z,7.10
2019-01-06T23:40:33.716Z,7.00
2019-01-06T23:43:38.383Z,7.10
2019-01-06T23:46:39.740Z,7.10
2019-01-06T23:49:44.156Z,7.10
2019-01-06T23:52:46.866Z,7.00
2019-01-06T23:55:51.491Z,7.10
2019-01-06T23:58:52.928Z,7.10
